sensor_id;sensor_type;location;lat;lon;timestamp;pressure;altitude;pressure_sealevel;temperature;humidity
84779;BME280;75010;50.866;20.620;2023-12-20T00:00:05;982;;;8.2;66
84779;BME280;75010;50.866;20.620;2023-12-20T00:07:06;982;;;8.2;66
84779;BME280;75010;50.866;20.620;2023-12-20T00:14:03;982;;;7.4;72
84779;BME280;75010;50.866;20.620;2023-12-20T00:21:06;982;;;7.4;72
84779;BME280;75010;50.866;20.620;2023-12-20T00:28:08;982;;;7.4;72
84779;BME280;75010;50.866;20.620;2023-12-20T00:35:03;982;;;6.9;79
84779;BME280;75010;50.866;20.620;2023-12-20T00:42:03;982;;;6.9;79
84779;BME280;75010;50.866;20.620;2023-12-20T00:49:05;982;;;6.6;82
84779;BME280;75010;50.866;20.620;2023-12-20T00:56:06;982;;;6.6;82
84779;BME280;75010;50.866;20.620;2023-12-20T01:00:05;982;;;6.6;82
84779;BME280;75010;50.866;20.620;2023-12-20T01:07:09;981;;;6.5;84
84779;BME280;75010;50.866;20.620;2023-12-20T01:14:08;981;;;6.5;84
84779;BME280;75010;50.866;20.620;2023-12-20T01:21:03;981;;;6.5;84
84779;BME280;75010;50.866;20.620;2023-12-20T01:28:05;981;;;6.5;84
84779;BME280;75010;50.866;20.620;2023-12-20T01:35:10;981;;;6.5;84
84779;BME280;75010;50.866;20.620;2023-12-20T01:49:02;981;;;6.4;85
84779;BME280;75010;50.866;20.620;2023-12-20T01:56:05;981;;;6.4;85
84779;BME280;75010;50.866;20.620;2023-12-20T02:00:07;981;;;6.4;85
84779;BME280;75010;50.866;20.620;2023-12-20T02:07:14;981;;;6.3;86
84779;BME280;75010;50.866;20.620;2023-12-20T02:14:04;981;;;6.3;86
84779;BME280;75010;50.866;20.620;2023-12-20T02:21:09;981;;;6.3;87
84779;BME280;75010;50.866;20.620;2023-12-20T02:28:07;981;;;6.3;87
84779;BME280;75010;50.866;20.620;2023-12-20T02:35:03;981;;;6.3;87
84779;BME280;75010;50.866;20.620;2023-12-20T02:42:07;980;;;6.2;88
84779;BME280;75010;50.866;20.620;2023-12-20T02:49:09;980;;;6.2;88
84779;BME280;75010;50.866;20.620;2023-12-20T02:56:05;980;;;6.2;88
84779;BME280;75010;50.866;20.620;2023-12-20T03:00:12;980;;;6.2;88
84779;BME280;75010;50.866;20.620;2023-12-20T03:07:03;980;;;6.2;88
84779;BME280;75010;50.866;20.620;2023-12-20T03:14:05;980;;;6.2;88
84779;BME280;75010;50.866;20.620;2023-12-20T03:21:11;980;;;6.2;88
84779;BME280;75010;50.866;20.620;2023-12-20T03:28:06;980;;;6.2;88
84779;BME280;75010;50.866;20.620;2023-12-20T03:35:05;980;;;6.2;87
84779;BME280;75010;50.866;20.620;2023-12-20T03:42:07;980;;;6.2;87
84779;BME280;75010;50.866;20.620;2023-12-20T03:49:07;980;;;6.3;88
84779;BME280;75010;50.866;20.620;2023-12-20T03:56:03;980;;;6.3;88
84779;BME280;75010;50.866;20.620;2023-12-20T04:00:12;980;;;6.3;88
84779;BME280;75010;50.866;20.620;2023-12-20T04:07:02;980;;;6.3;88
84779;BME280;75010;50.866;20.620;2023-12-20T04:14:03;980;;;6.3;88
84779;BME280;75010;50.866;20.620;2023-12-20T04:21:09;980;;;6.3;88
84779;BME280;75010;50.866;20.620;2023-12-20T04:28:09;980;;;6.3;88
84779;BME280;75010;50.866;20.620;2023-12-20T04:35:05;980;;;6.3;88
84779;BME280;75010;50.866;20.620;2023-12-20T04:49:03;980;;;6.2;88
84779;BME280;75010;50.866;20.620;2023-12-20T04:56:08;980;;;6.2;88
84779;BME280;75010;50.866;20.620;2023-12-20T05:00:10;980;;;6.2;88
84779;BME280;75010;50.866;20.620;2023-12-20T05:07:06;980;;;6.1;88
84779;BME280;75010;50.866;20.620;2023-12-20T05:14:10;980;;;6.1;88
84779;BME280;75010;50.866;20.620;2023-12-20T05:21:03;980;;;6.1;89
84779;BME280;75010;50.866;20.620;2023-12-20T05:28:10;980;;;6.1;89
84779;BME280;75010;50.866;20.620;2023-12-20T05:35:10;980;;;6.1;89
84779;BME280;75010;50.866;20.620;2023-12-20T05:42:03;980;;;6.1;89
84779;BME280;75010;50.866;20.620;2023-12-20T05:49:05;980;;;6.1;89
84779;BME280;75010;50.866;20.620;2023-12-20T05:56:05;980;;;6.1;89
84779;BME280;75010;50.866;20.620;2023-12-20T06:00:03;980;;;6.1;89
84779;BME280;75010;50.866;20.620;2023-12-20T06:07:08;980;;;6.1;89
84779;BME280;75010;50.866;20.620;2023-12-20T06:14:07;980;;;6.1;89
84779;BME280;75010;50.866;20.620;2023-12-20T06:21:14;980;;;6.1;89
84779;BME280;75010;50.866;20.620;2023-12-20T06:28:06;980;;;6.1;89
84779;BME280;75010;50.866;20.620;2023-12-20T06:35:03;980;;;6;88
84779;BME280;75010;50.866;20.620;2023-12-20T06:42:09;980;;;6;88
84779;BME280;75010;50.866;20.620;2023-12-20T06:49:08;980;;;5.9;89
84779;BME280;75010;50.866;20.620;2023-12-20T06:56:13;980;;;5.9;89
84779;BME280;75010;50.866;20.620;2023-12-20T07:00:12;980;;;5.9;89
84779;BME280;75010;50.866;20.620;2023-12-20T07:07:09;980;;;5.9;90
84779;BME280;75010;50.866;20.620;2023-12-20T07:14:08;980;;;5.9;90
84779;BME280;75010;50.866;20.620;2023-12-20T07:21:03;980;;;5.9;90
84779;BME280;75010;50.866;20.620;2023-12-20T07:28:09;980;;;6;90
84779;BME280;75010;50.866;20.620;2023-12-20T07:35:11;980;;;6;90
84779;BME280;75010;50.866;20.620;2023-12-20T07:49:05;980;;;6;90
84779;BME280;75010;50.866;20.620;2023-12-20T07:56:21;980;;;6;90
84779;BME280;75010;50.866;20.620;2023-12-20T08:00:12;980;;;6;90
84779;BME280;75010;50.866;20.620;2023-12-20T08:07:05;980;;;6;90
84779;BME280;75010;50.866;20.620;2023-12-20T08:14:04;980;;;6;90
84779;BME280;75010;50.866;20.620;2023-12-20T08:21:09;980;;;6;90
84779;BME280;75010;50.866;20.620;2023-12-20T08:28:09;980;;;6;90
84779;BME280;75010;50.866;20.620;2023-12-20T08:35:04;980;;;6;90
84779;BME280;75010;50.866;20.620;2023-12-20T08:42:06;980;;;6.1;89
84779;BME280;75010;50.866;20.620;2023-12-20T08:49:03;980;;;6.1;89
84779;BME280;75010;50.866;20.620;2023-12-20T08:56:03;980;;;6.1;88
84779;BME280;75010;50.866;20.620;2023-12-20T09:00:13;980;;;6.1;88
84779;BME280;75010;50.866;20.620;2023-12-20T09:07:06;980;;;6.1;88
84779;BME280;75010;50.866;20.620;2023-12-20T09:14:09;980;;;6.1;88
84779;BME280;75010;50.866;20.620;2023-12-20T09:21:03;980;;;6.1;88
84779;BME280;75010;50.866;20.620;2023-12-20T09:28:09;980;;;6.1;88
84779;BME280;75010;50.866;20.620;2023-12-20T09:35:08;980;;;6;88
84779;BME280;75010;50.866;20.620;2023-12-20T09:42:08;980;;;6;88
84779;BME280;75010;50.866;20.620;2023-12-20T09:49:10;980;;;5.9;88
84779;BME280;75010;50.866;20.620;2023-12-20T09:56:06;980;;;5.9;88
84779;BME280;75010;50.866;20.620;2023-12-20T10:00:11;980;;;5.9;88
84779;BME280;75010;50.866;20.620;2023-12-20T10:07:06;980;;;5.9;88
84779;BME280;75010;50.866;20.620;2023-12-20T10:14:07;980;;;5.9;88
84779;BME280;75010;50.866;20.620;2023-12-20T10:21:03;980;;;5.9;88
84779;BME280;75010;50.866;20.620;2023-12-20T10:28:16;979;;;5.9;87
84779;BME280;75010;50.866;20.620;2023-12-20T10:35:09;979;;;5.9;87
84779;BME280;75010;50.866;20.620;2023-12-20T10:49:10;979;;;5.9;88
84779;BME280;75010;50.866;20.620;2023-12-20T10:56:20;979;;;5.9;88
84779;BME280;75010;50.866;20.620;2023-12-20T11:00:16;979;;;5.9;88
84779;BME280;75010;50.866;20.620;2023-12-20T11:07:23;979;;;5.9;86
84779;BME280;75010;50.866;20.620;2023-12-20T11:14:22;979;;;5.9;86
84779;BME280;75010;50.866;20.620;2023-12-20T11:21:04;979;;;5.9;86
84779;BME280;75010;50.866;20.620;2023-12-20T11:28:15;979;;;5.9;84
84779;BME280;75010;50.866;20.620;2023-12-20T11:35:22;979;;;5.9;84
84779;BME280;75010;50.866;20.620;2023-12-20T11:42:05;979;;;6;85
84779;BME280;75010;50.866;20.620;2023-12-20T11:49:07;979;;;6;85
84779;BME280;75010;50.866;20.620;2023-12-20T11:56:09;979;;;6;86
84779;BME280;75010;50.866;20.620;2023-12-20T12:00:07;979;;;6;86
84779;BME280;75010;50.866;20.620;2023-12-20T12:07:06;979;;;6;86
84779;BME280;75010;50.866;20.620;2023-12-20T12:14:07;979;;;5.9;85
84779;BME280;75010;50.866;20.620;2023-12-20T12:21:05;979;;;5.9;85
84779;BME280;75010;50.866;20.620;2023-12-20T12:28:05;979;;;5.9;85
84779;BME280;75010;50.866;20.620;2023-12-20T12:35:03;979;;;5.7;85
84779;BME280;75010;50.866;20.620;2023-12-20T12:42:04;979;;;5.7;85
84779;BME280;75010;50.866;20.620;2023-12-20T12:49:09;979;;;5.7;86
84779;BME280;75010;50.866;20.620;2023-12-20T12:56:09;979;;;5.7;86
84779;BME280;75010;50.866;20.620;2023-12-20T13:00:02;979;;;5.7;86
84779;BME280;75010;50.866;20.620;2023-12-20T13:07:03;979;;;5.6;85
84779;BME280;75010;50.866;20.620;2023-12-20T13:14:08;979;;;5.6;85
84779;BME280;75010;50.866;20.620;2023-12-20T13:21:03;979;;;5.6;85
84779;BME280;75010;50.866;20.620;2023-12-20T13:28:09;979;;;5.6;86
84779;BME280;75010;50.866;20.620;2023-12-20T13:35:03;979;;;5.6;86
84779;BME280;75010;50.866;20.620;2023-12-20T13:49:08;979;;;5.6;86
84779;BME280;75010;50.866;20.620;2023-12-20T13:56:10;979;;;5.6;86
84779;BME280;75010;50.866;20.620;2023-12-20T14:00:16;979;;;5.6;86
84779;BME280;75010;50.866;20.620;2023-12-20T14:07:04;979;;;5.5;86
84779;BME280;75010;50.866;20.620;2023-12-20T15:01:36;979;;;5.4;83
84779;BME280;75010;50.866;20.620;2023-12-20T15:01:36;979;;;5.4;83
84779;BME280;75010;50.866;20.620;2023-12-20T15:01:36;979;;;5.4;83
84779;BME280;75010;50.866;20.620;2023-12-20T15:21:36;979;;;5.2;84
84779;BME280;75010;50.866;20.620;2023-12-20T15:41:36;979;;;5.3;84
84779;BME280;75010;50.866;20.620;2023-12-20T15:41:36;979;;;5.3;84
84779;BME280;75010;50.866;20.620;2023-12-20T16:01:36;979;;;5.3;84
84779;BME280;75010;50.866;20.620;2023-12-20T16:01:36;979;;;5.3;84
84779;BME280;75010;50.866;20.620;2023-12-20T16:01:36;979;;;5.3;84
84779;BME280;75010;50.866;20.620;2023-12-20T16:11:36;979;;;5.3;83
84779;BME280;75010;50.866;20.620;2023-12-20T16:11:36;979;;;5.3;83
84779;BME280;75010;50.866;20.620;2023-12-20T16:47:05;979;;;5.4;83
84779;BME280;75010;50.866;20.620;2023-12-20T16:50:08;979;;;5.4;83
84779;BME280;75010;50.866;20.620;2023-12-20T17:00:05;979;;;5.4;83
84779;BME280;75010;50.866;20.620;2023-12-20T17:10:05;979;;;5.1;83
84779;BME280;75010;50.866;20.620;2023-12-20T17:30:10;979;;;4.9;84
84779;BME280;75010;50.866;20.620;2023-12-20T17:30:59;979;;;4.9;84
84779;BME280;75010;50.866;20.620;2023-12-20T17:37:14;978;;;4.9;84
84779;BME280;75010;50.866;20.620;2023-12-20T17:40:09;978;;;4.9;84
84779;BME280;75010;50.866;20.620;2023-12-20T17:50:09;978;;;4.9;84
84779;BME280;75010;50.866;20.620;2023-12-20T17:57:01;978;;;4.8;84
84779;BME280;75010;50.866;20.620;2023-12-20T17:57:29;978;;;4.8;84
84779;BME280;75010;50.866;20.620;2023-12-20T17:58:07;978;;;4.8;84
84779;BME280;75010;50.866;20.620;2023-12-20T18:00:28;978;;;4.8;84
84779;BME280;75010;50.866;20.620;2023-12-20T18:09:52;978;;;4.8;84
84779;BME280;75010;50.866;20.620;2023-12-20T18:10:03;978;;;4.8;84
84779;BME280;75010;50.866;20.620;2023-12-20T18:18:00;978;;;4.7;85
84779;BME280;75010;50.866;20.620;2023-12-20T18:20:06;978;;;4.7;85
84779;BME280;75010;50.866;20.620;2023-12-20T18:30:08;978;;;4.7;85
84779;BME280;75010;50.866;20.620;2023-12-20T18:40:03;978;;;4.8;85
84779;BME280;75010;50.866;20.620;2023-12-20T18:50:10;978;;;4.9;84
84779;BME280;75010;50.866;20.620;2023-12-20T19:00:03;978;;;4.9;84
84779;BME280;75010;50.866;20.620;2023-12-20T19:10:06;978;;;5;82
84779;BME280;75010;50.866;20.620;2023-12-20T19:20:08;978;;;5;82
84779;BME280;75010;50.866;20.620;2023-12-20T19:30:04;978;;;5;82
84779;BME280;75010;50.866;20.620;2023-12-20T19:40:07;978;;;5;82
84779;BME280;75010;50.866;20.620;2023-12-20T19:50:03;978;;;5.3;80
84779;BME280;75010;50.866;20.620;2023-12-20T20:00:11;978;;;5.3;80
84779;BME280;75010;50.866;20.620;2023-12-20T20:10:05;978;;;5.1;82
84779;BME280;75010;50.866;20.620;2023-12-20T20:20:04;978;;;5;82
84779;BME280;75010;50.866;20.620;2023-12-20T20:30:03;978;;;5;82
84779;BME280;75010;50.866;20.620;2023-12-20T20:40:06;978;;;5.1;81
84779;BME280;75010;50.866;20.620;2023-12-20T20:50:07;978;;;5.1;81
84779;BME280;75010;50.866;20.620;2023-12-20T21:00:09;978;;;5.2;80
84779;BME280;75010;50.866;20.620;2023-12-20T21:10:06;978;;;5.2;80
84779;BME280;75010;50.866;20.620;2023-12-20T21:20:03;978;;;5.3;78
84779;BME280;75010;50.866;20.620;2023-12-20T21:30:07;978;;;5.3;78
84779;BME280;75010;50.866;20.620;2023-12-20T21:40:09;978;;;5.4;78
84779;BME280;75010;50.866;20.620;2023-12-20T21:50:03;978;;;4.6;83
84779;BME280;75010;50.866;20.620;2023-12-20T22:00:04;978;;;4.6;83
84779;BME280;75010;50.866;20.620;2023-12-20T22:10:04;978;;;3.8;86
84779;BME280;75010;50.866;20.620;2023-12-20T22:20:03;978;;;3.8;86
84779;BME280;75010;50.866;20.620;2023-12-20T22:30:11;978;;;3.3;87
84779;BME280;75010;50.866;20.620;2023-12-20T22:40:08;978;;;3.3;87
84779;BME280;75010;50.866;20.620;2023-12-20T22:50:04;978;;;3.3;88
84779;BME280;75010;50.866;20.620;2023-12-20T23:00:05;978;;;3.3;88
84779;BME280;75010;50.866;20.620;2023-12-20T23:10:03;978;;;3.7;89
84779;BME280;75010;50.866;20.620;2023-12-20T23:20:06;978;;;4.1;89
84779;BME280;75010;50.866;20.620;2023-12-20T23:30:08;978;;;4.1;89
84779;BME280;75010;50.866;20.620;2023-12-20T23:40:06;978;;;4.1;90
84779;BME280;75010;50.866;20.620;2023-12-20T23:50:05;978;;;4.1;90
